YAYE

Details ICAO YAYE (AYQ)
Name Ayers Rock
Region Australia
Timezone Australia/Darwin (UTC+9.5)
Plans Departing 124
Arriving 143
Stats Elevation 1,625 ft / 495 m (AMSL)
Location -25.185600° 130.977000°
Runways 1
Magnetic Variation 3.848° E
Sunrise 2019-05-25 21:52:06 UTC / 2019-05-26 07:22:06 Local
Sunset 2019-05-26 08:36:54 UTC / 2019-05-26 18:06:54 Local
Advertisement - Login to hide

Runways

ID Width Length Bearing (true/mag) Surface Threshold Overrun Markings Lighting
13 98 ft / 30 m 8,535 ft / 2,601 m 129.70° / 125.85° ASPHALT 0 ft / 0 m 0 ft / 0 m PREC-APP EDGE THRESHOLD ALSF-II
31 98 ft / 30 m 8,535 ft / 2,601 m 309.69° / 305.84° ASPHALT 0 ft / 0 m 0 ft / 0 m PREC-APP EDGE THRESHOLD ALSF-II

Map

Weather


0- 5 10 15 20 25 30 35+ Temperature / °C

Clouds and Precipitation
Forecast for 2019-05-26 12:00 UTC. Updated 4 hours ago

Ground ~20,000 ft ~40,000 ft Winds

METAR

YAYE 261300Z AUTO 13007KT 9999 // NCD 15/05 Q1022

TAF

Not found

Frequencies

Unicom 121.85 MHz MELBOURNE CENTRE MULT
Unicom 120.60 MHz ACTIVATE LIGHTS ONLY MULT
Recorded 126.55 MHz YAYE ATIS
Unicom 126.90 MHz AYERS ROCK MULT
Warning: Do not use this data for real-world aviation or navigation. No guarantee of current accuracy is given.